sensor_id;sensor_type;location;lat;lon;timestamp;P1;durP1;ratioP1;P2;durP2;ratioP2
41657;SDS011;27347;57.132;-2.084;2022-11-15T00:00:54;36.50;;;19.88;;
41657;SDS011;27347;57.132;-2.084;2022-11-15T00:03:21;43.95;;;21.95;;
41657;SDS011;27347;57.132;-2.084;2022-11-15T00:05:50;43.35;;;22.48;;
41657;SDS011;27347;57.132;-2.084;2022-11-15T00:08:16;49.72;;;24.17;;
41657;SDS011;27347;57.132;-2.084;2022-11-15T00:10:41;46.35;;;25.05;;
41657;SDS011;27347;57.132;-2.084;2022-11-15T00:13:08;53.22;;;25.85;;
41657;SDS011;27347;57.132;-2.084;2022-11-15T00:15:35;51.65;;;24.08;;
41657;SDS011;27347;57.132;-2.084;2022-11-15T00:18:02;44.67;;;23.05;;
41657;SDS011;27347;57.132;-2.084;2022-11-15T00:20:28;57.75;;;26.38;;
41657;SDS011;27347;57.132;-2.084;2022-11-15T00:22:54;51.75;;;24.92;;
41657;SDS011;27347;57.132;-2.084;2022-11-15T00:25:19;48.58;;;24.05;;
41657;SDS011;27347;57.132;-2.084;2022-11-15T00:27:44;46.80;;;22.13;;
41657;SDS011;27347;57.132;-2.084;2022-11-15T00:30:10;53.60;;;25.05;;
41657;SDS011;27347;57.132;-2.084;2022-11-15T00:32:36;50.58;;;24.40;;
41657;SDS011;27347;57.132;-2.084;2022-11-15T00:35:02;55.80;;;26.85;;
41657;SDS011;27347;57.132;-2.084;2022-11-15T00:37:27;61.05;;;26.52;;
41657;SDS011;27347;57.132;-2.084;2022-11-15T00:39:52;62.30;;;28.15;;
41657;SDS011;27347;57.132;-2.084;2022-11-15T00:42:18;61.58;;;27.88;;
41657;SDS011;27347;57.132;-2.084;2022-11-15T00:44:43;59.55;;;27.65;;
41657;SDS011;27347;57.132;-2.084;2022-11-15T00:47:09;53.83;;;27.05;;
41657;SDS011;27347;57.132;-2.084;2022-11-15T00:49:34;48.45;;;25.45;;
41657;SDS011;27347;57.132;-2.084;2022-11-15T00:51:59;56.15;;;27.67;;
41657;SDS011;27347;57.132;-2.084;2022-11-15T00:54:25;47.95;;;23.13;;
41657;SDS011;27347;57.132;-2.084;2022-11-15T00:56:50;59.67;;;28.05;;
41657;SDS011;27347;57.132;-2.084;2022-11-15T00:59:15;50.75;;;23.75;;
41657;SDS011;27347;57.132;-2.084;2022-11-15T01:01:41;50.38;;;22.80;;
41657;SDS011;27347;57.132;-2.084;2022-11-15T01:04:06;48.83;;;24.83;;
41657;SDS011;27347;57.132;-2.084;2022-11-15T01:06:31;58.58;;;26.02;;
41657;SDS011;27347;57.132;-2.084;2022-11-15T01:08:57;55.25;;;24.35;;
41657;SDS011;27347;57.132;-2.084;2022-11-15T01:11:22;54.42;;;25.13;;
41657;SDS011;27347;57.132;-2.084;2022-11-15T01:13:47;47.55;;;24.65;;
41657;SDS011;27347;57.132;-2.084;2022-11-15T01:16:14;58.83;;;25.58;;
41657;SDS011;27347;57.132;-2.084;2022-11-15T01:18:42;51.97;;;23.15;;
41657;SDS011;27347;57.132;-2.084;2022-11-15T01:21:09;51.63;;;23.17;;
41657;SDS011;27347;57.132;-2.084;2022-11-15T01:23:35;45.60;;;22.67;;
41657;SDS011;27347;57.132;-2.084;2022-11-15T01:26:02;52.55;;;23.15;;
41657;SDS011;27347;57.132;-2.084;2022-11-15T01:28:31;49.83;;;24.35;;
41657;SDS011;27347;57.132;-2.084;2022-11-15T01:30:59;45.85;;;21.83;;
41657;SDS011;27347;57.132;-2.084;2022-11-15T01:33:25;43.88;;;22.27;;
41657;SDS011;27347;57.132;-2.084;2022-11-15T01:35:50;52.05;;;23.10;;
41657;SDS011;27347;57.132;-2.084;2022-11-15T01:38:16;49.70;;;22.15;;
41657;SDS011;27347;57.132;-2.084;2022-11-15T01:40:41;50.28;;;22.83;;
41657;SDS011;27347;57.132;-2.084;2022-11-15T01:43:19;48.10;;;21.83;;
41657;SDS011;27347;57.132;-2.084;2022-11-15T01:45:46;53.47;;;25.30;;
41657;SDS011;27347;57.132;-2.084;2022-11-15T01:48:14;54.40;;;24.67;;
41657;SDS011;27347;57.132;-2.084;2022-11-15T01:50:40;54.90;;;25.30;;
41657;SDS011;27347;57.132;-2.084;2022-11-15T01:53:05;53.42;;;26.45;;
41657;SDS011;27347;57.132;-2.084;2022-11-15T01:55:31;44.75;;;23.38;;
41657;SDS011;27347;57.132;-2.084;2022-11-15T01:58:00;51.95;;;23.85;;
41657;SDS011;27347;57.132;-2.084;2022-11-15T02:00:28;49.13;;;23.85;;
41657;SDS011;27347;57.132;-2.084;2022-11-15T02:02:54;57.15;;;25.13;;
41657;SDS011;27347;57.132;-2.084;2022-11-15T02:05:19;51.38;;;24.38;;
41657;SDS011;27347;57.132;-2.084;2022-11-15T02:07:45;41.38;;;24.05;;
41657;SDS011;27347;57.132;-2.084;2022-11-15T02:10:17;47.88;;;23.25;;
41657;SDS011;27347;57.132;-2.084;2022-11-15T02:12:44;50.67;;;23.70;;
41657;SDS011;27347;57.132;-2.084;2022-11-15T02:15:09;45.88;;;21.83;;
41657;SDS011;27347;57.132;-2.084;2022-11-15T02:17:40;51.78;;;22.58;;
41657;SDS011;27347;57.132;-2.084;2022-11-15T02:26:51;49.78;;;24.20;;
41657;SDS011;27347;57.132;-2.084;2022-11-15T02:32:03;44.72;;;23.45;;
41657;SDS011;27347;57.132;-2.084;2022-11-15T02:39:50;43.40;;;21.05;;
41657;SDS011;27347;57.132;-2.084;2022-11-15T02:42:25;42.80;;;19.00;;
41657;SDS011;27347;57.132;-2.084;2022-11-15T02:45:11;50.67;;;23.30;;
41657;SDS011;27347;57.132;-2.084;2022-11-15T02:47:41;46.75;;;21.58;;
41657;SDS011;27347;57.132;-2.084;2022-11-15T02:50:10;51.63;;;21.98;;
41657;SDS011;27347;57.132;-2.084;2022-11-15T02:52:36;50.67;;;20.38;;
41657;SDS011;27347;57.132;-2.084;2022-11-15T02:55:02;42.47;;;19.45;;
41657;SDS011;27347;57.132;-2.084;2022-11-15T02:57:31;46.22;;;19.83;;
41657;SDS011;27347;57.132;-2.084;2022-11-15T03:07:36;41.90;;;18.50;;
41657;SDS011;27347;57.132;-2.084;2022-11-15T03:13:10;42.22;;;18.25;;
41657;SDS011;27347;57.132;-2.084;2022-11-15T03:16:01;43.45;;;18.83;;
41657;SDS011;27347;57.132;-2.084;2022-11-15T03:18:41;50.25;;;19.42;;
41657;SDS011;27347;57.132;-2.084;2022-11-15T03:21:09;46.10;;;20.48;;
41657;SDS011;27347;57.132;-2.084;2022-11-15T03:23:36;46.72;;;19.80;;
41657;SDS011;27347;57.132;-2.084;2022-11-15T03:26:03;48.15;;;19.13;;
41657;SDS011;27347;57.132;-2.084;2022-11-15T03:28:36;46.15;;;19.98;;
41657;SDS011;27347;57.132;-2.084;2022-11-15T03:31:06;46.92;;;19.00;;
41657;SDS011;27347;57.132;-2.084;2022-11-15T03:33:53;37.90;;;18.45;;
41657;SDS011;27347;57.132;-2.084;2022-11-15T03:36:21;42.20;;;19.40;;
41657;SDS011;27347;57.132;-2.084;2022-11-15T03:38:47;49.00;;;20.52;;
41657;SDS011;27347;57.132;-2.084;2022-11-15T03:41:23;48.15;;;20.13;;
41657;SDS011;27347;57.132;-2.084;2022-11-15T03:43:56;37.22;;;19.85;;
41657;SDS011;27347;57.132;-2.084;2022-11-15T03:46:30;51.22;;;20.55;;
41657;SDS011;27347;57.132;-2.084;2022-11-15T03:49:09;49.37;;;21.03;;
41657;SDS011;27347;57.132;-2.084;2022-11-15T03:51:37;45.42;;;20.15;;
41657;SDS011;27347;57.132;-2.084;2022-11-15T03:54:06;58.20;;;22.58;;
41657;SDS011;27347;57.132;-2.084;2022-11-15T03:56:31;56.10;;;22.88;;
41657;SDS011;27347;57.132;-2.084;2022-11-15T03:58:57;53.55;;;23.45;;
41657;SDS011;27347;57.132;-2.084;2022-11-15T04:01:22;49.92;;;22.38;;
41657;SDS011;27347;57.132;-2.084;2022-11-15T04:03:48;59.70;;;24.70;;
41657;SDS011;27347;57.132;-2.084;2022-11-15T04:06:13;53.75;;;24.75;;
41657;SDS011;27347;57.132;-2.084;2022-11-15T04:08:39;42.10;;;23.08;;
41657;SDS011;27347;57.132;-2.084;2022-11-15T04:11:04;55.10;;;25.95;;
41657;SDS011;27347;57.132;-2.084;2022-11-15T04:13:29;57.28;;;27.88;;
41657;SDS011;27347;57.132;-2.084;2022-11-15T04:15:55;46.97;;;26.30;;
41657;SDS011;27347;57.132;-2.084;2022-11-15T04:18:20;56.28;;;28.63;;
41657;SDS011;27347;57.132;-2.084;2022-11-15T04:20:46;52.65;;;25.20;;
41657;SDS011;27347;57.132;-2.084;2022-11-15T04:23:29;65.10;;;27.48;;
41657;SDS011;27347;57.132;-2.084;2022-11-15T04:26:30;53.97;;;25.75;;
41657;SDS011;27347;57.132;-2.084;2022-11-15T04:28:56;58.28;;;27.65;;
41657;SDS011;27347;57.132;-2.084;2022-11-15T04:31:40;52.80;;;24.45;;
41657;SDS011;27347;57.132;-2.084;2022-11-15T04:34:05;61.03;;;26.95;;
41657;SDS011;27347;57.132;-2.084;2022-11-15T04:36:30;64.55;;;27.20;;
41657;SDS011;27347;57.132;-2.084;2022-11-15T04:39:14;61.88;;;27.25;;
41657;SDS011;27347;57.132;-2.084;2022-11-15T04:41:40;55.20;;;26.23;;
41657;SDS011;27347;57.132;-2.084;2022-11-15T04:44:05;58.35;;;27.55;;
41657;SDS011;27347;57.132;-2.084;2022-11-15T04:46:31;63.75;;;28.48;;
41657;SDS011;27347;57.132;-2.084;2022-11-15T04:48:56;54.13;;;27.83;;
41657;SDS011;27347;57.132;-2.084;2022-11-15T04:51:21;61.83;;;28.38;;
41657;SDS011;27347;57.132;-2.084;2022-11-15T04:53:47;68.10;;;28.77;;
41657;SDS011;27347;57.132;-2.084;2022-11-15T04:56:12;65.50;;;30.60;;
41657;SDS011;27347;57.132;-2.084;2022-11-15T04:58:38;73.43;;;29.90;;
41657;SDS011;27347;57.132;-2.084;2022-11-15T05:01:13;58.00;;;29.75;;
41657;SDS011;27347;57.132;-2.084;2022-11-15T05:03:39;70.18;;;28.02;;
41657;SDS011;27347;57.132;-2.084;2022-11-15T05:06:24;52.72;;;25.95;;
41657;SDS011;27347;57.132;-2.084;2022-11-15T05:08:49;74.70;;;32.05;;
41657;SDS011;27347;57.132;-2.084;2022-11-15T05:11:15;67.05;;;30.35;;
41657;SDS011;27347;57.132;-2.084;2022-11-15T05:13:40;70.55;;;30.50;;
41657;SDS011;27347;57.132;-2.084;2022-11-15T05:16:05;57.33;;;27.08;;
41657;SDS011;27347;57.132;-2.084;2022-11-15T05:18:31;63.42;;;29.92;;
41657;SDS011;27347;57.132;-2.084;2022-11-15T05:21:02;68.25;;;28.25;;
41657;SDS011;27347;57.132;-2.084;2022-11-15T05:23:28;71.22;;;31.25;;
41657;SDS011;27347;57.132;-2.084;2022-11-15T05:25:58;60.70;;;27.98;;
41657;SDS011;27347;57.132;-2.084;2022-11-15T05:28:24;69.47;;;29.23;;
41657;SDS011;27347;57.132;-2.084;2022-11-15T05:30:49;61.65;;;29.67;;
41657;SDS011;27347;57.132;-2.084;2022-11-15T05:33:15;65.55;;;30.00;;
41657;SDS011;27347;57.132;-2.084;2022-11-15T05:35:41;59.95;;;30.60;;
41657;SDS011;27347;57.132;-2.084;2022-11-15T05:38:07;67.30;;;29.52;;
41657;SDS011;27347;57.132;-2.084;2022-11-15T05:40:33;61.03;;;33.28;;
41657;SDS011;27347;57.132;-2.084;2022-11-15T05:42:59;56.22;;;29.88;;
41657;SDS011;27347;57.132;-2.084;2022-11-15T05:45:26;74.45;;;33.55;;
41657;SDS011;27347;57.132;-2.084;2022-11-15T05:47:51;65.40;;;31.35;;
41657;SDS011;27347;57.132;-2.084;2022-11-15T05:50:19;67.15;;;31.88;;
41657;SDS011;27347;57.132;-2.084;2022-11-15T05:52:44;79.38;;;34.30;;
41657;SDS011;27347;57.132;-2.084;2022-11-15T05:55:11;54.10;;;31.10;;
41657;SDS011;27347;57.132;-2.084;2022-11-15T05:57:36;62.92;;;32.92;;
41657;SDS011;27347;57.132;-2.084;2022-11-15T06:00:03;74.90;;;36.00;;
41657;SDS011;27347;57.132;-2.084;2022-11-15T06:02:29;68.90;;;34.55;;
41657;SDS011;27347;57.132;-2.084;2022-11-15T06:04:54;72.38;;;33.30;;
41657;SDS011;27347;57.132;-2.084;2022-11-15T06:07:20;68.53;;;34.85;;
41657;SDS011;27347;57.132;-2.084;2022-11-15T06:09:45;66.50;;;33.00;;
41657;SDS011;27347;57.132;-2.084;2022-11-15T06:12:11;87.05;;;35.40;;
41657;SDS011;27347;57.132;-2.084;2022-11-15T06:14:36;72.35;;;36.65;;
41657;SDS011;27347;57.132;-2.084;2022-11-15T06:17:01;87.30;;;37.35;;
41657;SDS011;27347;57.132;-2.084;2022-11-15T06:19:27;71.55;;;34.83;;
41657;SDS011;27347;57.132;-2.084;2022-11-15T06:21:57;64.45;;;33.53;;
41657;SDS011;27347;57.132;-2.084;2022-11-15T06:24:23;82.65;;;35.38;;
41657;SDS011;27347;57.132;-2.084;2022-11-15T06:26:49;78.68;;;35.20;;
41657;SDS011;27347;57.132;-2.084;2022-11-15T06:29:14;65.18;;;34.70;;
41657;SDS011;27347;57.132;-2.084;2022-11-15T06:31:39;82.15;;;35.08;;
41657;SDS011;27347;57.132;-2.084;2022-11-15T06:34:05;73.88;;;36.88;;
41657;SDS011;27347;57.132;-2.084;2022-11-15T06:36:30;79.07;;;38.28;;
41657;SDS011;27347;57.132;-2.084;2022-11-15T06:38:56;70.88;;;34.65;;
41657;SDS011;27347;57.132;-2.084;2022-11-15T06:41:21;67.03;;;32.80;;
41657;SDS011;27347;57.132;-2.084;2022-11-15T06:43:47;70.50;;;33.67;;
41657;SDS011;27347;57.132;-2.084;2022-11-15T06:46:12;76.03;;;33.08;;
41657;SDS011;27347;57.132;-2.084;2022-11-15T06:48:37;70.70;;;32.92;;
41657;SDS011;27347;57.132;-2.084;2022-11-15T06:51:04;62.65;;;30.90;;
41657;SDS011;27347;57.132;-2.084;2022-11-15T06:53:30;72.55;;;31.35;;
41657;SDS011;27347;57.132;-2.084;2022-11-15T06:56:00;72.88;;;34.75;;
41657;SDS011;27347;57.132;-2.084;2022-11-15T06:58:26;74.60;;;32.78;;
41657;SDS011;27347;57.132;-2.084;2022-11-15T07:00:51;78.82;;;34.28;;
41657;SDS011;27347;57.132;-2.084;2022-11-15T07:03:16;81.78;;;33.42;;
41657;SDS011;27347;57.132;-2.084;2022-11-15T07:05:42;69.63;;;33.00;;
41657;SDS011;27347;57.132;-2.084;2022-11-15T07:08:07;69.95;;;31.15;;
41657;SDS011;27347;57.132;-2.084;2022-11-15T07:10:33;70.88;;;30.23;;
41657;SDS011;27347;57.132;-2.084;2022-11-15T07:12:59;68.20;;;29.83;;
41657;SDS011;27347;57.132;-2.084;2022-11-15T07:15:25;60.88;;;28.90;;
41657;SDS011;27347;57.132;-2.084;2022-11-15T07:17:51;63.08;;;27.40;;
41657;SDS011;27347;57.132;-2.084;2022-11-15T07:20:16;76.65;;;31.88;;
41657;SDS011;27347;57.132;-2.084;2022-11-15T07:22:42;67.30;;;28.67;;
41657;SDS011;27347;57.132;-2.084;2022-11-15T07:25:10;53.03;;;26.92;;
41657;SDS011;27347;57.132;-2.084;2022-11-15T07:27:35;82.70;;;32.47;;
41657;SDS011;27347;57.132;-2.084;2022-11-15T07:30:01;72.72;;;30.52;;
41657;SDS011;27347;57.132;-2.084;2022-11-15T07:32:26;56.78;;;26.60;;
41657;SDS011;27347;57.132;-2.084;2022-11-15T07:34:52;63.05;;;30.33;;
41657;SDS011;27347;57.132;-2.084;2022-11-15T07:37:17;74.07;;;30.92;;
41657;SDS011;27347;57.132;-2.084;2022-11-15T07:39:43;73.00;;;31.63;;
41657;SDS011;27347;57.132;-2.084;2022-11-15T07:42:09;67.10;;;30.27;;
41657;SDS011;27347;57.132;-2.084;2022-11-15T07:44:53;67.37;;;27.57;;
41657;SDS011;27347;57.132;-2.084;2022-11-15T07:47:18;85.85;;;31.35;;
41657;SDS011;27347;57.132;-2.084;2022-11-15T07:49:44;66.10;;;29.05;;
41657;SDS011;27347;57.132;-2.084;2022-11-15T07:52:11;81.00;;;30.77;;
41657;SDS011;27347;57.132;-2.084;2022-11-15T07:54:36;78.68;;;32.40;;
41657;SDS011;27347;57.132;-2.084;2022-11-15T07:57:01;66.95;;;30.25;;
41657;SDS011;27347;57.132;-2.084;2022-11-15T07:59:27;69.32;;;28.17;;
41657;SDS011;27347;57.132;-2.084;2022-11-15T08:01:52;65.45;;;28.08;;
41657;SDS011;27347;57.132;-2.084;2022-11-15T08:04:18;63.30;;;29.30;;
41657;SDS011;27347;57.132;-2.084;2022-11-15T08:06:43;77.10;;;31.45;;
41657;SDS011;27347;57.132;-2.084;2022-11-15T08:09:08;72.03;;;31.40;;
41657;SDS011;27347;57.132;-2.084;2022-11-15T08:11:34;75.80;;;31.70;;
41657;SDS011;27347;57.132;-2.084;2022-11-15T08:13:59;67.45;;;29.00;;
41657;SDS011;27347;57.132;-2.084;2022-11-15T08:16:25;86.22;;;32.72;;
41657;SDS011;27347;57.132;-2.084;2022-11-15T08:18:50;95.07;;;33.30;;
41657;SDS011;27347;57.132;-2.084;2022-11-15T08:21:17;80.10;;;30.35;;
41657;SDS011;27347;57.132;-2.084;2022-11-15T08:23:44;81.97;;;31.63;;
41657;SDS011;27347;57.132;-2.084;2022-11-15T08:26:09;85.35;;;32.35;;
41657;SDS011;27347;57.132;-2.084;2022-11-15T08:28:35;72.72;;;32.83;;
41657;SDS011;27347;57.132;-2.084;2022-11-15T08:31:00;72.93;;;32.03;;
41657;SDS011;27347;57.132;-2.084;2022-11-15T08:33:26;69.20;;;30.40;;
41657;SDS011;27347;57.132;-2.084;2022-11-15T08:35:52;83.22;;;34.72;;
41657;SDS011;27347;57.132;-2.084;2022-11-15T08:38:21;62.67;;;30.08;;
41657;SDS011;27347;57.132;-2.084;2022-11-15T08:40:47;77.93;;;33.80;;
41657;SDS011;27347;57.132;-2.084;2022-11-15T08:43:12;75.00;;;31.98;;
41657;SDS011;27347;57.132;-2.084;2022-11-15T08:45:38;73.78;;;32.63;;
41657;SDS011;27347;57.132;-2.084;2022-11-15T08:48:03;92.65;;;37.80;;
41657;SDS011;27347;57.132;-2.084;2022-11-15T08:50:29;85.45;;;34.13;;
41657;SDS011;27347;57.132;-2.084;2022-11-15T08:52:55;83.85;;;35.38;;
41657;SDS011;27347;57.132;-2.084;2022-11-15T08:55:20;78.93;;;34.50;;
41657;SDS011;27347;57.132;-2.084;2022-11-15T08:57:45;67.63;;;31.05;;
41657;SDS011;27347;57.132;-2.084;2022-11-15T09:00:11;79.80;;;32.42;;
41657;SDS011;27347;57.132;-2.084;2022-11-15T09:02:37;73.30;;;32.50;;
41657;SDS011;27347;57.132;-2.084;2022-11-15T09:05:03;79.13;;;33.00;;
41657;SDS011;27347;57.132;-2.084;2022-11-15T09:07:30;82.80;;;34.15;;
41657;SDS011;27347;57.132;-2.084;2022-11-15T09:09:56;82.85;;;32.90;;
41657;SDS011;27347;57.132;-2.084;2022-11-15T09:12:22;86.32;;;33.78;;
41657;SDS011;27347;57.132;-2.084;2022-11-15T09:14:47;82.43;;;34.08;;
41657;SDS011;27347;57.132;-2.084;2022-11-15T09:17:12;78.80;;;34.17;;
41657;SDS011;27347;57.132;-2.084;2022-11-15T09:19:38;85.43;;;31.92;;
41657;SDS011;27347;57.132;-2.084;2022-11-15T09:22:07;78.85;;;31.33;;
41657;SDS011;27347;57.132;-2.084;2022-11-15T09:24:33;71.45;;;31.85;;
41657;SDS011;27347;57.132;-2.084;2022-11-15T09:26:59;74.00;;;30.70;;
41657;SDS011;27347;57.132;-2.084;2022-11-15T09:29:24;73.03;;;30.55;;
41657;SDS011;27347;57.132;-2.084;2022-11-15T09:31:51;74.63;;;31.58;;
41657;SDS011;27347;57.132;-2.084;2022-11-15T09:34:17;64.13;;;28.17;;
41657;SDS011;27347;57.132;-2.084;2022-11-15T09:36:42;70.95;;;30.98;;
41657;SDS011;27347;57.132;-2.084;2022-11-15T09:39:08;62.40;;;28.23;;
41657;SDS011;27347;57.132;-2.084;2022-11-15T09:44:17;78.68;;;30.52;;
41657;SDS011;27347;57.132;-2.084;2022-11-15T09:49:31;68.35;;;29.75;;
41657;SDS011;27347;57.132;-2.084;2022-11-15T09:51:57;56.45;;;27.17;;
41657;SDS011;27347;57.132;-2.084;2022-11-15T09:54:30;76.05;;;30.27;;
41657;SDS011;27347;57.132;-2.084;2022-11-15T09:57:03;69.05;;;28.13;;
41657;SDS011;27347;57.132;-2.084;2022-11-15T10:04:45;50.50;;;25.83;;
41657;SDS011;27347;57.132;-2.084;2022-11-15T10:07:28;85.35;;;29.90;;
41657;SDS011;27347;57.132;-2.084;2022-11-15T10:12:47;68.47;;;28.67;;
41657;SDS011;27347;57.132;-2.084;2022-11-15T10:15:14;69.22;;;28.63;;
41657;SDS011;27347;57.132;-2.084;2022-11-15T10:23:14;65.95;;;29.80;;
41657;SDS011;27347;57.132;-2.084;2022-11-15T10:25:41;74.15;;;30.40;;
41657;SDS011;27347;57.132;-2.084;2022-11-15T10:30:40;65.75;;;27.58;;
41657;SDS011;27347;57.132;-2.084;2022-11-15T10:35:46;86.82;;;32.80;;
41657;SDS011;27347;57.132;-2.084;2022-11-15T10:38:12;84.78;;;31.67;;
41657;SDS011;27347;57.132;-2.084;2022-11-15T10:40:38;71.05;;;31.80;;
41657;SDS011;27347;57.132;-2.084;2022-11-15T10:45:36;63.08;;;27.17;;
41657;SDS011;27347;57.132;-2.084;2022-11-15T10:50:37;69.85;;;29.25;;
41657;SDS011;27347;57.132;-2.084;2022-11-15T10:53:49;79.13;;;28.92;;
41657;SDS011;27347;57.132;-2.084;2022-11-15T10:56:06;65.20;;;28.17;;
41657;SDS011;27347;57.132;-2.084;2022-11-15T11:03:41;69.05;;;29.85;;
41657;SDS011;27347;57.132;-2.084;2022-11-15T11:06:09;84.05;;;30.85;;
41657;SDS011;27347;57.132;-2.084;2022-11-15T11:08:39;59.38;;;28.50;;
41657;SDS011;27347;57.132;-2.084;2022-11-15T11:11:05;78.32;;;32.03;;
41657;SDS011;27347;57.132;-2.084;2022-11-15T11:13:39;78.97;;;30.35;;
41657;SDS011;27347;57.132;-2.084;2022-11-15T11:21:28;69.97;;;28.58;;
41657;SDS011;27347;57.132;-2.084;2022-11-15T11:24:16;62.60;;;25.13;;
41657;SDS011;27347;57.132;-2.084;2022-11-15T11:35:27;57.70;;;21.65;;
41657;SDS011;27347;57.132;-2.084;2022-11-15T11:38:10;52.35;;;18.80;;
41657;SDS011;27347;57.132;-2.084;2022-11-15T11:40:44;60.67;;;19.20;;
41657;SDS011;27347;57.132;-2.084;2022-11-15T11:43:55;49.10;;;16.77;;
41657;SDS011;27347;57.132;-2.084;2022-11-15T11:49:19;32.70;;;9.20;;
41657;SDS011;27347;57.132;-2.084;2022-11-15T11:57:11;32.33;;;7.35;;
41657;SDS011;27347;57.132;-2.084;2022-11-15T11:59:52;21.00;;;5.25;;
41657;SDS011;27347;57.132;-2.084;2022-11-15T12:02:38;26.27;;;4.93;;
41657;SDS011;27347;57.132;-2.084;2022-11-15T12:05:28;28.77;;;5.10;;
41657;SDS011;27347;57.132;-2.084;2022-11-15T12:09:00;24.25;;;5.07;;
41657;SDS011;27347;57.132;-2.084;2022-11-15T12:13:48;21.63;;;5.28;;
41657;SDS011;27347;57.132;-2.084;2022-11-15T12:16:23;27.80;;;6.25;;
41657;SDS011;27347;57.132;-2.084;2022-11-15T12:18:52;16.52;;;5.70;;
41657;SDS011;27347;57.132;-2.084;2022-11-15T12:21:25;27.95;;;7.18;;
41657;SDS011;27347;57.132;-2.084;2022-11-15T12:24:08;33.60;;;6.50;;
41657;SDS011;27347;57.132;-2.084;2022-11-15T12:26:45;23.73;;;6.28;;
41657;SDS011;27347;57.132;-2.084;2022-11-15T12:29:23;20.40;;;5.75;;
41657;SDS011;27347;57.132;-2.084;2022-11-15T12:31:53;27.33;;;5.22;;
41657;SDS011;27347;57.132;-2.084;2022-11-15T12:36:53;38.08;;;7.28;;
41657;SDS011;27347;57.132;-2.084;2022-11-15T12:39:18;29.45;;;6.65;;
41657;SDS011;27347;57.132;-2.084;2022-11-15T12:59:52;23.50;;;5.07;;
41657;SDS011;27347;57.132;-2.084;2022-11-15T13:03:12;25.17;;;6.18;;
41657;SDS011;27347;57.132;-2.084;2022-11-15T13:08:07;25.88;;;6.38;;
41657;SDS011;27347;57.132;-2.084;2022-11-15T13:10:33;24.98;;;6.00;;
41657;SDS011;27347;57.132;-2.084;2022-11-15T13:13:02;37.10;;;8.77;;
41657;SDS011;27347;57.132;-2.084;2022-11-15T13:20:48;31.30;;;7.20;;
41657;SDS011;27347;57.132;-2.084;2022-11-15T13:23:15;41.80;;;7.78;;
41657;SDS011;27347;57.132;-2.084;2022-11-15T13:33:49;40.65;;;7.13;;
41657;SDS011;27347;57.132;-2.084;2022-11-15T13:36:19;31.65;;;6.78;;
41657;SDS011;27347;57.132;-2.084;2022-11-15T13:38:53;33.78;;;6.00;;
41657;SDS011;27347;57.132;-2.084;2022-11-15T13:41:31;29.70;;;6.03;;
41657;SDS011;27347;57.132;-2.084;2022-11-15T13:43:58;31.15;;;5.88;;
41657;SDS011;27347;57.132;-2.084;2022-11-15T13:48:52;31.90;;;7.20;;
41657;SDS011;27347;57.132;-2.084;2022-11-15T13:53:52;28.48;;;6.63;;
41657;SDS011;27347;57.132;-2.084;2022-11-15T13:56:21;23.33;;;6.18;;
41657;SDS011;27347;57.132;-2.084;2022-11-15T13:58:46;24.77;;;5.75;;
41657;SDS011;27347;57.132;-2.084;2022-11-15T14:01:16;19.77;;;5.82;;
41657;SDS011;27347;57.132;-2.084;2022-11-15T14:03:49;37.42;;;6.78;;
41657;SDS011;27347;57.132;-2.084;2022-11-15T14:06:17;32.22;;;6.63;;
41657;SDS011;27347;57.132;-2.084;2022-11-15T14:09:14;31.35;;;5.55;;
41657;SDS011;27347;57.132;-2.084;2022-11-15T14:11:53;27.85;;;6.00;;
41657;SDS011;27347;57.132;-2.084;2022-11-15T14:14:23;33.78;;;7.00;;
41657;SDS011;27347;57.132;-2.084;2022-11-15T14:16:54;34.97;;;7.85;;
41657;SDS011;27347;57.132;-2.084;2022-11-15T14:24:34;27.83;;;5.85;;
41657;SDS011;27347;57.132;-2.084;2022-11-15T14:29:50;23.33;;;5.40;;
41657;SDS011;27347;57.132;-2.084;2022-11-15T14:32:17;34.58;;;6.63;;
41657;SDS011;27347;57.132;-2.084;2022-11-15T14:34:44;28.73;;;6.15;;
41657;SDS011;27347;57.132;-2.084;2022-11-15T14:42:10;39.35;;;5.93;;
41657;SDS011;27347;57.132;-2.084;2022-11-15T14:44:36;39.55;;;7.18;;
41657;SDS011;27347;57.132;-2.084;2022-11-15T14:47:01;31.55;;;7.20;;
41657;SDS011;27347;57.132;-2.084;2022-11-15T14:49:26;43.83;;;6.65;;
41657;SDS011;27347;57.132;-2.084;2022-11-15T14:51:52;41.08;;;6.28;;
41657;SDS011;27347;57.132;-2.084;2022-11-15T14:54:17;36.38;;;5.97;;
41657;SDS011;27347;57.132;-2.084;2022-11-15T14:56:43;43.00;;;6.90;;
41657;SDS011;27347;57.132;-2.084;2022-11-15T14:59:08;31.25;;;5.57;;
41657;SDS011;27347;57.132;-2.084;2022-11-15T15:01:33;41.13;;;6.82;;
41657;SDS011;27347;57.132;-2.084;2022-11-15T15:03:59;37.28;;;6.10;;
41657;SDS011;27347;57.132;-2.084;2022-11-15T15:06:24;52.20;;;7.38;;
41657;SDS011;27347;57.132;-2.084;2022-11-15T15:08:50;39.55;;;5.57;;
41657;SDS011;27347;57.132;-2.084;2022-11-15T15:11:18;53.08;;;7.32;;
41657;SDS011;27347;57.132;-2.084;2022-11-15T15:13:46;52.25;;;7.30;;
